Time;durP1;ratioP1;P1;durP2;ratioP2;P2;SDS_P1;SDS_P2;PMS_P1;PMS_P2;Temp;Humidity;BMP_temperature;BMP_pressure;BME280_temperature;BME280_humidity;BME280_pressure;Samples;Min_cycle;Max_cycle;Signal;HPM_P1;HPM_P2
2023/01/31 00:01:23;;;;;;;0.88;0.77;;;;;;;5.35;27.88;92578.19;5034302;28;20037;-77
2023/01/31 00:03:56;;;;;;;0.52;0.52;;;;;;;5.32;27.40;92570.13;5027891;28;20068;-78
2023/01/31 00:06:28;;;;;;;1.00;0.70;;;;;;;5.31;27.73;92584.13;5034454;28;20116;-77
2023/01/31 00:08:54;;;;;;;0.88;0.60;;;;;;;5.22;28.33;92570.84;5034430;28;20052;-77
2023/01/31 00:11:25;;;;;;;0.75;0.65;;;;;;;5.10;27.88;92573.63;5015110;28;20045;-78
2023/01/31 00:13:51;;;;;;;0.82;0.63;;;;;;;5.00;28.68;92581.34;5033853;28;20048;-77
2023/01/31 00:16:18;;;;;;;0.60;0.60;;;;;;;4.93;28.62;92583.34;5035011;28;20124;-77
2023/01/31 00:35:50;;;;;;;0.60;0.60;;;;;;;4.58;29.28;92603.59;5195169;22;20089;31
2023/01/31 00:38:16;;;;;;;0.82;0.82;;;;;;;4.68;28.73;92605.47;4931041;29;20308;-79
2023/01/31 00:40:41;;;;;;;0.57;0.57;;;;;;;4.68;28.97;92605.47;4973768;28;20050;-79
2023/01/31 00:43:07;;;;;;;0.95;0.57;;;;;;;4.62;28.84;92597.91;4937575;29;20115;-79
2023/01/31 00:45:32;;;;;;;0.63;0.63;;;;;;;4.45;29.37;92590.25;4943061;28;20051;-79
2023/01/31 00:47:58;;;;;;;0.60;0.60;;;;;;;4.46;29.53;92605.56;4942712;29;20040;-80
2023/01/31 00:50:24;;;;;;;0.55;0.43;;;;;;;4.38;29.70;92609.34;4959529;28;20067;-80
2023/01/31 00:52:50;;;;;;;0.85;0.60;;;;;;;4.35;29.38;92604.66;4971930;28;20083;-80
2023/01/31 00:55:15;;;;;;;1.30;0.68;;;;;;;4.35;29.90;92612.44;4946907;28;20052;-79
2023/01/31 00:57:41;;;;;;;0.40;0.40;;;;;;;4.49;29.39;92617.25;4972805;28;20449;-80
2023/01/31 01:00:07;;;;;;;0.70;0.70;;;;;;;4.41;29.64;92608.06;4969505;28;20131;-79
2023/01/31 01:02:33;;;;;;;0.50;0.50;;;;;;;4.26;30.34;92624.28;4945508;29;20092;-80
2023/01/31 01:04:59;;;;;;;0.40;0.40;;;;;;;4.10;30.64;92623.34;4974255;28;20055;-78
2023/01/31 01:07:25;;;;;;;0.60;0.60;;;;;;;4.03;30.98;92624.53;4956477;29;20267;-79
2023/01/31 01:09:53;;;;;;;0.60;0.60;;;;;;;4.06;30.60;92621.47;4947241;29;20431;-79
2023/01/31 01:12:19;;;;;;;0.70;0.70;;;;;;;4.05;30.51;92622.47;4943398;29;20047;-79
2023/01/31 01:14:45;;;;;;;0.82;0.60;;;;;;;4.05;30.42;92630.25;4971436;28;20409;-79
2023/01/31 01:17:11;;;;;;;0.60;0.60;;;;;;;4.09;30.54;92641.69;4936422;29;20046;-79
2023/01/31 01:19:37;;;;;;;0.60;0.60;;;;;;;4.03;30.73;92634.88;4941084;29;20044;-79
2023/01/31 01:22:04;;;;;;;0.70;0.60;;;;;;;3.99;30.73;92644.19;4940260;29;20458;-79
2023/01/31 01:24:30;;;;;;;0.60;0.60;;;;;;;3.90;31.14;92646.41;4941994;28;20070;-79
2023/01/31 01:26:56;;;;;;;1.05;0.70;;;;;;;3.89;31.14;92644.84;4933764;29;20047;-79
2023/01/31 01:29:22;;;;;;;0.68;0.68;;;;;;;3.92;30.77;92652.91;4935953;29;20580;-79
2023/01/31 01:31:48;;;;;;;0.50;0.50;;;;;;;3.81;31.49;92660.81;4956457;28;20047;-79
2023/01/31 01:34:16;;;;;;;0.60;0.60;;;;;;;3.75;31.10;92655.53;4942148;29;20059;-78
2023/01/31 01:36:42;;;;;;;0.60;0.60;;;;;;;3.68;31.20;92662.72;4949161;28;20107;-79
2023/01/31 01:39:10;;;;;;;0.50;0.50;;;;;;;3.62;31.83;92657.69;4992749;28;20046;-79
2023/01/31 01:41:38;;;;;;;0.55;0.55;;;;;;;3.51;31.99;92662.75;4960956;28;20051;-79
2023/01/31 01:44:44;;;;;;;1.38;0.70;;;;;;;3.45;32.26;92668.88;4959749;28;20050;-79
2023/01/31 01:47:17;;;;;;;0.63;0.63;;;;;;;3.45;31.79;92666.28;4990258;28;20058;-79
2023/01/31 01:49:47;;;;;;;0.73;0.70;;;;;;;3.42;31.79;92665.97;4955907;28;20405;-79
2023/01/31 01:52:15;;;;;;;0.70;0.70;;;;;;;3.43;31.75;92665.72;4992723;28;20508;-79
2023/01/31 01:54:47;;;;;;;0.50;0.50;;;;;;;3.53;30.96;92671.06;4955569;28;20126;-79
2023/01/31 01:57:16;;;;;;;;;;;;;;;3.61;31.06;92666.50;4975564;28;20058;-79
2023/01/31 01:59:49;;;;;;;0.60;0.60;;;;;;;3.61;30.80;92669.09;4961565;28;20450;-79
2023/01/31 02:02:16;;;;;;;0.65;0.65;;;;;;;3.68;30.51;92662.72;4957466;28;20054;-79
2023/01/31 02:04:46;;;;;;;0.50;0.50;;;;;;;3.77;30.02;92662.31;4992283;28;20047;-79
2023/01/31 02:07:12;;;;;;;0.60;0.60;;;;;;;3.70;30.89;92670.25;4967569;28;20099;-79
2023/01/31 02:09:57;;;;;;;0.90;0.75;;;;;;;3.60;31.16;92675.28;4978423;28;20057;-79
2023/01/31 02:12:23;;;;;;;0.70;0.70;;;;;;;3.59;31.16;92681.47;4955207;28;20051;-79
2023/01/31 02:14:49;;;;;;;0.70;0.70;;;;;;;3.55;30.87;92676.75;4956443;28;20027;-79
2023/01/31 02:17:17;;;;;;;0.60;0.60;;;;;;;3.51;30.75;92672.31;4987412;28;20047;-79
2023/01/31 02:20:22;;;;;;;0.68;0.52;;;;;;;3.69;30.29;92684.19;4981718;28;20055;-79
2023/01/31 02:23:06;;;;;;;0.60;0.60;;;;;;;3.63;30.75;92675.59;4962374;28;20071;-79
2023/01/31 02:25:56;;;;;;;0.63;0.63;;;;;;;3.66;30.87;92692.44;4974959;28;20050;-79
2023/01/31 02:28:48;;;;;;;0.52;0.50;;;;;;;3.77;30.08;92686.38;4960934;28;20035;-79
2023/01/31 02:31:30;;;;;;;0.47;0.47;;;;;;;3.89;29.85;92688.84;4942643;29;20051;-79
2023/01/31 02:34:35;;;;;;;0.60;0.57;;;;;;;4.00;29.84;92687.19;4971173;28;20057;-79
2023/01/31 02:37:19;;;;;;;0.70;0.70;;;;;;;3.92;29.95;92691.75;4957250;28;20150;-79
2023/01/31 02:39:47;;;;;;;0.65;0.65;;;;;;;3.86;30.45;92689.34;4974386;28;20039;-79
2023/01/31 02:42:41;;;;;;;0.50;0.50;;;;;;;3.77;30.24;92694.16;4973872;28;20042;-79
2023/01/31 02:45:29;;;;;;;0.65;0.65;;;;;;;3.85;29.59;92682.59;4976141;28;20138;-79
2023/01/31 02:48:07;;;;;;;0.60;0.60;;;;;;;3.88;29.42;92692.50;4941616;28;20050;-79
2023/01/31 02:50:58;;;;;;;0.70;0.70;;;;;;;4.00;29.20;92692.38;4949644;28;20043;-79
2023/01/31 02:53:33;;;;;;;0.65;0.65;;;;;;;3.93;29.07;92685.56;4990283;28;20046;-79
2023/01/31 02:56:18;;;;;;;1.00;0.60;;;;;;;3.85;29.56;92691.16;4956578;28;20043;-79
2023/01/31 02:58:59;;;;;;;0.60;0.60;;;;;;;3.79;29.88;92692.13;4991936;28;20054;-79
2023/01/31 03:01:29;;;;;;;0.60;0.60;;;;;;;3.77;29.59;92701.91;4974557;28;20119;-79
2023/01/31 03:04:10;;;;;;;0.50;0.50;;;;;;;3.80;30.03;92695.47;4951223;28;20049;-79
2023/01/31 03:06:36;;;;;;;0.70;0.70;;;;;;;3.94;28.65;92694.09;4959211;28;20051;-79
2023/01/31 03:09:20;;;;;;;0.90;0.73;;;;;;;3.93;29.67;92698.50;4991269;28;20038;-79
2023/01/31 03:12:04;;;;;;;0.68;0.60;;;;;;;3.81;29.77;92692.66;4959478;28;20043;-79
2023/01/31 03:14:41;;;;;;;0.60;0.60;;;;;;;3.63;30.15;92685.94;4990042;28;20600;-79
2023/01/31 03:17:30;;;;;;;0.70;0.70;;;;;;;3.64;30.12;92705.63;4995237;28;20048;-79
2023/01/31 03:20:08;;;;;;;0.60;0.60;;;;;;;3.76;29.30;92702.97;4986016;28;20046;-78
2023/01/31 03:22:39;;;;;;;0.60;0.60;;;;;;;3.62;30.09;92701.72;4995268;28;20317;-79
2023/01/31 03:25:10;;;;;;;1.33;0.70;;;;;;;3.63;29.70;92700.69;4976041;28;20039;-79
2023/01/31 03:27:40;;;;;;;0.63;0.60;;;;;;;3.76;29.29;92710.72;4996900;28;20047;-79
2023/01/31 03:30:16;;;;;;;0.63;0.50;;;;;;;3.97;28.90;92709.19;4990090;28;20046;-79
2023/01/31 03:32:50;;;;;;;0.63;0.63;;;;;;;3.92;28.96;92720.25;4964662;28;20582;-79
2023/01/31 03:35:20;;;;;;;0.60;0.60;;;;;;;3.78;29.41;92719.00;4997363;28;20058;-79
2023/01/31 03:38:06;;;;;;;0.65;0.65;;;;;;;3.79;29.39;92732.75;4996606;28;20049;-79
2023/01/31 03:41:00;;;;;;;0.50;0.50;;;;;;;3.73;29.40;92739.66;4962919;28;20070;-78
2023/01/31 03:43:38;;;;;;;0.60;0.60;;;;;;;3.72;29.11;92740.69;4968059;28;20046;-79
2023/01/31 03:46:08;;;;;;;1.60;0.80;;;;;;;3.93;28.85;92734.00;4967665;28;20043;-79
2023/01/31 03:48:39;;;;;;;0.57;0.57;;;;;;;3.88;28.98;92744.28;4996569;28;20039;-78
2023/01/31 03:51:08;;;;;;;0.88;0.80;;;;;;;3.92;28.51;92742.78;4997436;28;20043;-79
2023/01/31 03:54:01;;;;;;;0.65;0.65;;;;;;;3.81;29.11;92741.88;4994551;28;20035;-79
2023/01/31 03:56:36;;;;;;;0.70;0.70;;;;;;;3.66;29.75;92744.22;4994968;28;20086;-79
2023/01/31 03:59:14;;;;;;;0.70;0.70;;;;;;;3.50;29.97;92754.34;4965234;28;20039;-79
2023/01/31 04:01:47;;;;;;;0.70;0.70;;;;;;;3.44;29.41;92752.69;4964940;28;20077;-79
2023/01/31 04:04:37;;;;;;;3.92;0.75;;;;;;;3.53;29.73;92758.28;4997047;28;20047;-79
2023/01/31 04:07:03;;;;;;;0.75;0.75;;;;;;;3.46;29.48;92750.66;4964900;28;20047;-79
2023/01/31 04:09:30;;;;;;;0.82;0.70;;;;;;;3.42;29.60;92746.19;4976037;28;20122;-79
2023/01/31 04:11:58;;;;;;;1.70;0.80;;;;;;;3.41;29.64;92742.81;4963863;28;20081;-79
2023/01/31 04:14:24;;;;;;;0.68;0.63;;;;;;;3.21;30.55;92751.03;4966300;28;20035;-79
2023/01/31 04:16:49;;;;;;;0.60;0.60;;;;;;;3.10;30.66;92749.31;4997098;28;20058;-79
2023/01/31 04:19:15;;;;;;;0.50;0.50;;;;;;;3.04;30.81;92751.03;4966554;28;20055;-79
2023/01/31 04:21:40;;;;;;;0.80;0.65;;;;;;;3.00;30.78;92749.94;4961601;28;20062;-79
2023/01/31 04:24:08;;;;;;;0.88;0.70;;;;;;;2.97;30.51;92731.50;4964246;28;21460;-79
2023/01/31 04:26:34;;;;;;;4.47;0.63;;;;;;;3.03;29.57;92733.16;4966342;28;20043;-79
2023/01/31 04:28:59;;;;;;;0.60;0.60;;;;;;;3.06;29.99;92736.06;4969129;28;20042;-79
2023/01/31 04:31:25;;;;;;;0.50;0.50;;;;;;;3.31;29.21;92740.88;4963543;28;20254;-79
2023/01/31 04:33:50;;;;;;;0.70;0.70;;;;;;;3.37;28.92;92746.91;4992405;28;20062;-78
2023/01/31 04:36:16;;;;;;;0.60;0.60;;;;;;;3.23;29.49;92754.19;4962305;28;20059;-78
2023/01/31 04:38:42;;;;;;;1.25;0.93;;;;;;;3.07;30.30;92753.16;4957962;28;20035;-78
2023/01/31 04:41:07;;;;;;;0.50;0.50;;;;;;;2.91;31.38;92761.66;4977029;28;20799;-78
2023/01/31 04:43:33;;;;;;;0.63;0.63;;;;;;;2.76;32.04;92756.22;4964263;28;20070;-78
2023/01/31 04:45:58;;;;;;;0.60;0.60;;;;;;;2.85;30.70;92755.59;4962997;28;20081;-78
2023/01/31 04:48:24;;;;;;;0.70;0.70;;;;;;;2.75;30.73;92758.03;4953230;28;20175;-78
2023/01/31 04:50:50;;;;;;;0.70;0.70;;;;;;;2.68;30.79;92765.91;4961948;28;20095;-78
2023/01/31 04:53:15;;;;;;;0.70;0.70;;;;;;;2.63;31.08;92762.44;4962226;28;20071;-78
2023/01/31 04:55:41;;;;;;;0.57;0.57;;;;;;;2.71;30.33;92765.44;4963244;28;20420;-78
2023/01/31 04:58:07;;;;;;;0.60;0.60;;;;;;;2.63;30.54;92765.81;4992152;28;20047;-79
2023/01/31 05:00:32;;;;;;;0.60;0.60;;;;;;;2.59;31.02;92769.88;4955519;28;20046;-79
2023/01/31 05:02:58;;;;;;;0.93;0.70;;;;;;;2.79;30.24;92766.91;4990163;28;20546;-78
2023/01/31 05:05:23;;;;;;;0.50;0.50;;;;;;;2.67;30.68;92760.97;4967080;28;20170;-78
2023/01/31 05:07:49;;;;;;;0.63;0.60;;;;;;;2.56;31.38;92770.31;4953088;28;20044;-78
2023/01/31 05:10:18;;;;;;;1.00;0.90;;;;;;;2.48;31.12;92774.06;4989188;28;20054;-78
2023/01/31 05:12:44;;;;;;;1.20;0.80;;;;;;;2.44;31.05;92767.00;4962080;28;20047;-78
2023/01/31 05:15:10;;;;;;;0.85;0.82;;;;;;;2.36;31.65;92780.28;4964924;28;20057;-78
2023/01/31 05:17:36;;;;;;;0.80;0.80;;;;;;;2.29;31.94;92783.75;4953035;28;20047;-78
2023/01/31 05:20:03;;;;;;;0.60;0.60;;;;;;;2.42;30.05;92781.94;4991065;28;20047;-78
2023/01/31 05:22:29;;;;;;;0.88;0.65;;;;;;;2.34;30.71;92785.66;4959783;28;20054;-78
2023/01/31 05:24:54;;;;;;;0.63;0.60;;;;;;;2.27;31.30;92785.81;4960788;28;20063;-78
2023/01/31 05:27:20;;;;;;;1.52;0.80;;;;;;;2.17;31.60;92790.75;4958047;28;20035;-78
2023/01/31 05:29:46;;;;;;;0.90;0.70;;;;;;;2.09;31.97;92791.09;4958366;28;20106;-78
2023/01/31 05:32:13;;;;;;;0.82;0.70;;;;;;;2.23;31.03;92786.47;4956389;28;20035;-78
2023/01/31 05:34:39;;;;;;;0.60;0.60;;;;;;;2.17;30.92;92785.59;4956177;28;20518;-78
2023/01/31 05:37:05;;;;;;;0.88;0.80;;;;;;;2.21;30.36;92791.88;4988099;28;20044;-79
2023/01/31 05:39:30;;;;;;;0.63;0.63;;;;;;;2.40;30.23;92792.50;4976414;28;20107;-79
2023/01/31 05:41:56;;;;;;;1.33;0.80;;;;;;;2.37;30.06;92792.19;4988051;28;20082;-79
2023/01/31 05:44:22;;;;;;;0.93;0.77;;;;;;;2.47;29.52;92793.16;4962487;28;20088;-79
2023/01/31 05:46:49;;;;;;;0.65;0.63;;;;;;;2.40;30.34;92789.91;4956654;28;20066;-80
2023/01/31 05:49:15;;;;;;;1.63;0.80;;;;;;;2.36;30.40;92796.56;4987566;28;20035;-80
2023/01/31 05:51:41;;;;;;;2.08;0.60;;;;;;;2.41;29.61;92804.44;4950986;28;20053;-79
2023/01/31 05:54:07;;;;;;;1.45;0.90;;;;;;;2.44;29.82;92806.53;4963509;28;20058;-79
2023/01/31 05:56:33;;;;;;;0.50;0.50;;;;;;;2.39;29.88;92800.50;4987217;28;20107;-78
2023/01/31 05:59:01;;;;;;;1.05;0.80;;;;;;;2.41;29.67;92796.69;4950033;28;20043;-78
2023/01/31 06:01:27;;;;;;;0.65;0.63;;;;;;;2.41;29.98;92813.94;4952006;28;20043;-78
2023/01/31 06:03:52;;;;;;;0.57;0.57;;;;;;;2.43;29.65;92817.91;4953430;28;20058;-78
2023/01/31 06:06:19;;;;;;;0.65;0.65;;;;;;;2.43;29.72;92822.28;4957635;29;20051;-77
2023/01/31 06:08:45;;;;;;;1.13;0.82;;;;;;;2.42;29.52;92825.88;4987134;28;20051;-77
2023/01/31 06:11:12;;;;;;;0.60;0.60;;;;;;;2.42;29.63;92820.72;4956638;29;20031;-78
2023/01/31 06:13:39;;;;;;;0.70;0.70;;;;;;;2.40;29.29;92825.31;4946664;29;20051;-77
2023/01/31 06:16:23;;;;;;;2.03;1.08;;;;;;;2.44;28.97;92829.03;4959896;29;20461;-77
2023/01/31 06:18:49;;;;;;;0.85;0.70;;;;;;;2.56;28.50;92829.00;4936877;29;20048;-77
2023/01/31 06:21:15;;;;;;;0.70;0.70;;;;;;;2.53;28.71;92826.88;4955204;28;20039;-77
2023/01/31 06:23:44;;;;;;;0.70;0.70;;;;;;;2.54;28.85;92834.38;4964069;28;20403;-78
2023/01/31 06:26:11;;;;;;;1.50;0.73;;;;;;;2.42;29.11;92831.03;4940408;29;20052;-78
2023/01/31 06:28:37;;;;;;;5.93;0.93;;;;;;;2.58;29.20;92835.50;4954560;28;20039;-78
2023/01/31 06:31:10;;;;;;;2.25;0.77;;;;;;;2.57;28.68;92833.94;4959712;28;20051;-78
2023/01/31 06:33:36;;;;;;;0.60;0.60;;;;;;;2.57;28.87;92838.31;4949526;28;20207;-78
2023/01/31 06:36:03;;;;;;;1.02;0.85;;;;;;;2.57;28.29;92844.28;4958246;28;20138;-78
2023/01/31 06:38:29;;;;;;;0.70;0.70;;;;;;;2.74;27.66;92846.16;4957845;28;20043;-78
2023/01/31 06:40:54;;;;;;;0.60;0.60;;;;;;;2.63;28.42;92837.41;4956682;28;20122;-78
2023/01/31 06:43:20;;;;;;;0.65;0.65;;;;;;;2.65;27.71;92849.06;4957724;29;20107;-78
2023/01/31 06:45:48;;;;;;;0.93;0.60;;;;;;;2.67;27.67;92838.53;4957290;29;20055;-78
2023/01/31 06:48:14;;;;;;;0.73;0.73;;;;;;;2.73;27.74;92849.75;4959207;29;20075;-78
2023/01/31 06:50:40;;;;;;;1.52;0.90;;;;;;;2.75;27.82;92850.28;4958097;28;20144;-78
2023/01/31 06:53:06;;;;;;;0.80;0.80;;;;;;;2.77;27.48;92851.66;4990825;28;20084;-78
2023/01/31 06:55:31;;;;;;;0.90;0.80;;;;;;;2.73;27.69;92842.00;4957793;28;20039;-78
2023/01/31 06:57:57;;;;;;;1.15;0.80;;;;;;;2.88;26.81;92844.88;4957096;28;20047;-78
2023/01/31 07:00:26;;;;;;;1.05;0.90;;;;;;;2.89;26.86;92851.63;4957471;29;20051;-78
2023/01/31 07:02:52;;;;;;;0.93;0.75;;;;;;;2.87;26.89;92851.06;4962042;28;20047;-77
2023/01/31 07:05:19;;;;;;;0.90;0.80;;;;;;;3.33;26.89;92857.88;4984716;28;20039;-77
2023/01/31 07:07:45;;;;;;;1.17;0.88;;;;;;;4.55;25.72;92852.97;4951590;29;20520;-77
2023/01/31 07:10:11;;;;;;;2.08;0.93;;;;;;;5.92;23.98;92844.28;4958346;29;20035;-78
2023/01/31 07:12:37;;;;;;;1.38;0.88;;;;;;;7.13;23.09;92846.25;4955636;28;20054;-78
2023/01/31 07:15:03;;;;;;;1.95;1.00;;;;;;;8.23;21.56;92848.47;4978001;28;20126;-78
2023/01/31 07:17:29;;;;;;;1.17;0.90;;;;;;;9.09;20.14;92843.34;4970704;28;20070;-78
2023/01/31 07:19:54;;;;;;;2.47;0.90;;;;;;;10.06;20.36;92853.22;4963642;29;20043;-78
2023/01/31 07:22:20;;;;;;;0.70;0.70;;;;;;;10.95;19.46;92855.59;4964672;28;20047;-78
2023/01/31 07:24:47;;;;;;;1.65;1.00;;;;;;;11.68;18.51;92856.28;4965145;28;20062;-79
2023/01/31 07:27:13;;;;;;;1.65;0.80;;;;;;;12.42;17.36;92838.13;4964486;28;20062;-79
2023/01/31 07:29:39;;;;;;;1.30;0.88;;;;;;;13.16;16.95;92849.69;4965718;29;20035;-78
2023/01/31 07:32:05;;;;;;;1.23;0.90;;;;;;;13.76;16.10;92852.19;4966903;29;20047;-79
2023/01/31 07:34:31;;;;;;;1.25;0.88;;;;;;;14.50;15.25;92846.53;4976549;28;20058;-78
2023/01/31 07:36:56;;;;;;;0.85;0.82;;;;;;;14.86;15.54;92848.31;4965462;28;20055;-79
2023/01/31 07:39:22;;;;;;;1.80;1.00;;;;;;;15.43;14.12;92852.84;4967732;28;20054;-79
2023/01/31 07:41:48;;;;;;;1.15;0.90;;;;;;;15.91;14.63;92857.28;4966326;28;20055;-79
2023/01/31 07:44:14;;;;;;;0.80;0.77;;;;;;;16.37;13.74;92860.38;4966319;28;20074;-79
2023/01/31 07:46:40;;;;;;;1.23;0.80;;;;;;;16.63;13.98;92858.47;4967937;29;20050;-79
2023/01/31 07:49:08;;;;;;;2.45;0.98;;;;;;;17.66;13.44;92858.44;4965723;29;20043;-79
2023/01/31 07:51:34;;;;;;;1.95;1.10;;;;;;;17.80;12.92;92855.53;4966116;29;20065;-79
2023/01/31 07:54:01;;;;;;;1.42;1.00;;;;;;;18.10;12.43;92855.50;4967137;29;20063;-79
2023/01/31 07:56:26;;;;;;;1.20;0.90;;;;;;;18.83;12.50;92860.34;4957426;29;20055;-79
2023/01/31 07:58:52;;;;;;;1.20;0.80;;;;;;;19.02;12.36;92861.72;4966887;28;20051;-79
2023/01/31 08:04:06;;;;;;;4.38;1.50;;;;;;;19.71;11.84;92866.19;5001724;28;20047;-79
2023/01/31 08:06:32;;;;;;;2.83;1.40;;;;;;;20.12;11.83;92866.25;4969968;28;20151;-80
2023/01/31 08:08:59;;;;;;;8.43;3.83;;;;;;;21.24;12.53;92873.44;4970362;28;20102;-80
2023/01/31 08:11:25;;;;;;;8.43;4.95;;;;;;;21.46;13.79;92868.63;4967704;29;20039;-79
2023/01/31 08:13:50;;;;;;;5.97;3.40;;;;;;;20.71;13.15;92878.91;5001889;28;20457;-79
2023/01/31 08:16:16;;;;;;;4.05;2.00;;;;;;;21.69;11.13;92869.59;5002707;28;20051;-78
2023/01/31 08:18:42;;;;;;;4.30;2.40;;;;;;;21.50;11.76;92874.84;4984652;28;20051;-79
2023/01/31 08:21:11;;;;;;;3.40;1.75;;;;;;;21.03;10.56;92876.34;4969978;28;20047;-79
2023/01/31 08:23:38;;;;;;;5.65;2.30;;;;;;;22.33;10.86;92886.22;4973634;28;20039;-79
2023/01/31 08:26:10;;;;;;;3.40;1.85;;;;;;;22.31;9.79;92893.03;4970689;28;20035;-79
2023/01/31 08:28:37;;;;;;;7.15;4.15;;;;;;;20.95;12.09;92883.34;4983287;28;20051;-79
2023/01/31 08:31:04;;;;;;;5.10;2.65;;;;;;;22.87;11.36;92882.69;4985183;28;20051;-79
2023/01/31 08:33:29;;;;;;;4.45;1.90;;;;;;;22.30;11.11;92867.50;4969663;28;20050;-80
2023/01/31 08:35:55;;;;;;;5.95;3.53;;;;;;;22.38;11.51;92874.50;4996785;28;20024;-79
2023/01/31 08:38:21;;;;;;;11.00;5.50;;;;;;;;;;4985307;28;20047;-79
2023/01/31 08:40:46;;;;;;;9.73;4.00;;;;;;;23.72;11.60;92883.78;4985367;28;20043;-79
2023/01/31 08:43:12;;;;;;;10.07;6.45;;;;;;;23.80;13.75;92880.88;4985034;28;20050;-79
2023/01/31 08:45:37;;;;;;;13.40;8.13;;;;;;;22.20;15.42;92896.22;4985659;28;20199;-79
2023/01/31 08:48:03;;;;;;;15.45;8.63;;;;;;;20.76;16.99;92899.19;4970277;29;20051;-79
2023/01/31 08:50:30;;;;;;;18.95;9.63;;;;;;;19.48;17.78;92912.88;4984179;28;20042;-78
2023/01/31 08:52:59;;;;;;;16.00;9.20;;;;;;;19.10;17.76;92905.97;4967975;28;20127;-79
2023/01/31 08:55:26;;;;;;;18.80;7.28;;;;;;;17.50;18.27;92905.06;4966497;28;20046;-79
2023/01/31 08:57:52;;;;;;;12.48;6.38;;;;;;;17.78;17.72;92901.97;4966427;28;20580;-78
2023/01/31 09:00:19;;;;;;;10.80;6.07;;;;;;;16.30;18.91;92916.34;4965323;29;20039;-79
2023/01/31 09:02:52;;;;;;;15.82;7.38;;;;;;;15.61;20.90;92912.47;4967211;28;20505;-78
2023/01/31 09:05:19;;;;;;;13.13;7.75;;;;;;;15.49;21.36;92914.13;4964794;29;20047;-78
2023/01/31 09:07:44;;;;;;;10.10;5.72;;;;;;;15.83;19.13;92913.50;4964460;28;20077;-79
2023/01/31 09:10:10;;;;;;;3.85;1.85;;;;;;;15.34;17.42;92915.34;4965775;29;20348;-78
2023/01/31 09:12:36;;;;;;;3.80;2.15;;;;;;;14.57;17.68;92925.94;4964845;29;20057;-78
2023/01/31 09:15:02;;;;;;;3.47;1.80;;;;;;;13.46;18.22;92929.84;4963563;28;20109;-78
2023/01/31 09:17:28;;;;;;;3.65;1.55;;;;;;;13.07;18.46;92931.84;4963601;29;20091;-78
2023/01/31 09:19:54;;;;;;;4.88;1.48;;;;;;;13.15;17.79;92933.03;4964813;28;20039;-78
2023/01/31 09:22:20;;;;;;;2.80;1.58;;;;;;;13.66;18.49;92936.56;4964058;28;20090;-78
2023/01/31 09:24:45;;;;;;;3.03;1.55;;;;;;;14.35;16.99;92933.81;4964908;29;20082;-78
2023/01/31 09:27:11;;;;;;;2.53;1.48;;;;;;;14.18;17.15;92934.44;4962914;28;20041;-78
2023/01/31 09:29:37;;;;;;;2.80;1.45;;;;;;;13.92;17.15;92937.63;4964477;28;20134;-79
2023/01/31 09:32:03;;;;;;;2.85;1.60;;;;;;;13.84;17.48;92943.56;4995474;28;20047;-78
2023/01/31 09:34:29;;;;;;;2.50;1.40;;;;;;;13.65;17.61;92948.94;4972880;28;20062;-78
2023/01/31 09:36:56;;;;;;;3.28;1.60;;;;;;;13.87;17.60;92950.88;4964873;28;20063;-77
2023/01/31 09:39:23;;;;;;;3.80;1.80;;;;;;;14.17;18.10;92943.41;4960548;28;20046;-77
2023/01/31 09:41:53;;;;;;;3.03;1.63;;;;;;;14.70;17.72;92945.41;4957400;28;20039;-78
2023/01/31 09:44:28;;;;;;;3.92;2.00;;;;;;;15.76;16.81;92947.47;4956380;29;20043;-77
2023/01/31 09:47:27;;;;;;;3.28;1.60;;;;;;;15.66;16.03;92950.38;4955431;28;20134;-77
2023/01/31 09:50:12;;;;;;;2.67;1.40;;;;;;;16.18;16.74;92955.78;4983629;28;20071;-77
2023/01/31 09:52:38;;;;;;;2.53;1.30;;;;;;;16.31;15.40;92962.03;4949703;29;20143;-77
2023/01/31 09:55:06;;;;;;;3.03;1.35;;;;;;;16.56;15.50;92965.75;4956215;29;20055;-78
2023/01/31 09:57:47;;;;;;;3.35;1.60;;;;;;;16.59;14.44;92971.19;4954864;28;20047;-77
2023/01/31 10:00:52;;;;;;;2.58;1.33;;;;;;;16.05;15.43;92968.03;4954643;28;20047;-77
2023/01/31 10:03:35;;;;;;;3.15;1.55;;;;;;;15.47;15.69;92979.63;4935455;28;20145;-77
2023/01/31 10:06:27;;;;;;;2.22;1.20;;;;;;;15.05;15.50;92979.09;4978843;28;20059;-77
2023/01/31 10:09:09;;;;;;;2.53;1.38;;;;;;;15.24;14.66;92992.06;4953277;28;20337;-78
2023/01/31 10:11:42;;;;;;;3.55;1.50;;;;;;;14.71;15.17;92989.13;4985141;28;20051;-77
2023/01/31 10:14:10;;;;;;;2.35;1.23;;;;;;;15.38;14.42;92992.78;4955908;29;20066;-77
2023/01/31 10:16:45;;;;;;;2.75;1.40;;;;;;;15.96;14.13;92980.44;4987759;28;20059;-78
2023/01/31 10:19:16;;;;;;;3.25;1.40;;;;;;;16.08;14.46;92985.91;4955443;28;20066;-78
2023/01/31 10:21:49;;;;;;;1.83;1.20;;;;;;;15.92;13.45;92980.28;4944165;28;20385;-77
2023/01/31 10:24:24;;;;;;;2.67;1.35;;;;;;;15.88;14.31;92989.91;4952431;28;20051;-78
2023/01/31 10:26:56;;;;;;;2.33;1.30;;;;;;;15.98;14.28;92979.03;4971610;28;20043;-78
2023/01/31 10:29:29;;;;;;;2.08;1.23;;;;;;;15.70;14.19;92983.75;4954767;28;20042;-77
2023/01/31 10:31:59;;;;;;;2.63;1.30;;;;;;;15.06;14.17;92983.28;4984839;28;20122;-77
2023/01/31 10:34:35;;;;;;;1.95;1.20;;;;;;;14.91;14.73;92989.72;4954483;28;20404;-77
2023/01/31 10:37:31;;;;;;;3.40;1.60;;;;;;;14.70;16.34;92984.13;4951485;29;20051;-77
2023/01/31 10:40:15;;;;;;;3.42;1.80;;;;;;;14.86;16.15;92977.44;4956742;28;20047;-77
2023/01/31 10:42:48;;;;;;;3.95;1.90;;;;;;;14.93;16.40;92972.53;4947970;29;20100;-77
2023/01/31 10:45:20;;;;;;;2.97;1.55;;;;;;;14.70;16.42;92977.03;4955529;29;20035;-77
2023/01/31 10:48:12;;;;;;;4.13;2.10;;;;;;;14.45;17.32;92975.69;4956117;29;20448;-77
2023/01/31 10:50:44;;;;;;;4.55;2.10;;;;;;;14.52;17.70;92972.66;4954162;28;20043;-77
2023/01/31 10:53:12;;;;;;;4.07;2.22;;;;;;;14.69;17.29;92967.56;4953733;28;20043;-77
2023/01/31 10:56:22;;;;;;;5.25;2.50;;;;;;;14.44;18.20;92962.84;4984587;28;20119;-78
2023/01/31 10:58:49;;;;;;;5.10;2.28;;;;;;;14.19;18.30;92958.91;4936009;29;21632;-78
2023/01/31 11:01:15;;;;;;;5.10;2.75;;;;;;;14.34;18.40;92959.38;4985376;28;20043;-78
2023/01/31 11:03:48;;;;;;;5.63;2.78;;;;;;;14.68;19.37;92949.41;4969124;28;20050;-78
2023/01/31 11:06:14;;;;;;;5.03;2.88;;;;;;;14.85;18.73;92951.38;4955499;28;20074;-78
2023/01/31 11:08:59;;;;;;;6.00;3.10;;;;;;;15.00;18.80;92945.75;4956746;29;20043;-78
2023/01/31 11:11:27;;;;;;;7.07;3.10;;;;;;;14.43;18.61;92948.09;4956393;29;20097;-78
2023/01/31 11:14:02;;;;;;;6.05;2.92;;;;;;;14.58;18.71;92945.16;4953821;29;20044;-78
2023/01/31 11:16:34;;;;;;;5.90;3.00;;;;;;;13.83;18.61;92947.28;4953432;28;20167;-78
2023/01/31 11:19:03;;;;;;;5.35;2.70;;;;;;;14.17;18.85;92946.03;4954983;29;20035;-78
2023/01/31 11:21:34;;;;;;;5.93;2.65;;;;;;;14.26;19.21;92946.91;4954235;29;20569;-78
2023/01/31 11:24:18;;;;;;;5.63;2.42;;;;;;;14.01;19.89;92936.94;4984615;28;20134;-78
2023/01/31 11:27:05;;;;;;;6.45;3.22;;;;;;;13.80;20.92;92950.47;4952003;28;20051;-78
2023/01/31 11:29:46;;;;;;;7.13;3.30;;;;;;;14.01;20.41;92944.81;4985868;28;20050;-78
2023/01/31 11:32:22;;;;;;;9.25;3.58;;;;;;;14.14;20.44;92939.53;4953589;29;20040;-78
2023/01/31 11:34:59;;;;;;;8.32;3.40;;;;;;;14.28;20.74;92942.13;4937645;29;20105;-78
2023/01/31 11:37:26;;;;;;;6.25;3.25;;;;;;;14.25;20.45;92942.72;4943925;28;20039;-78
2023/01/31 11:39:56;;;;;;;7.18;3.95;;;;;;;14.50;20.55;92935.28;4958644;29;20070;-78
2023/01/31 11:42:22;;;;;;;8.13;3.70;;;;;;;14.44;20.48;92923.34;4959983;28;20047;-78
2023/01/31 11:44:58;;;;;;;9.65;4.18;;;;;;;14.39;20.39;92924.22;4957292;28;20059;-78
2023/01/31 11:47:32;;;;;;;6.93;3.70;;;;;;;13.88;21.08;92922.72;4957964;29;20054;-78
2023/01/31 11:49:59;;;;;;;6.03;3.17;;;;;;;14.16;20.73;92918.94;4954902;29;20043;-78
2023/01/31 11:52:31;;;;;;;8.23;3.90;;;;;;;13.72;21.18;92917.00;4940357;29;20386;-78
2023/01/31 11:55:01;;;;;;;7.20;3.53;;;;;;;13.97;21.24;92920.16;4944580;29;20039;-78
2023/01/31 11:57:38;;;;;;;7.00;3.78;;;;;;;14.02;21.22;92922.69;4990846;28;20059;-78
2023/01/31 12:00:29;;;;;;;9.45;3.35;;;;;;;14.02;21.35;92922.69;4989362;28;20454;-78
2023/01/31 12:03:07;;;;;;;5.45;3.28;;;;;;;14.01;21.21;92913.25;4958001;28;20416;-78
2023/01/31 12:05:39;;;;;;;7.15;3.50;;;;;;;14.07;21.60;92920.72;4951137;28;20054;-78
2023/01/31 12:08:26;;;;;;;7.45;3.80;;;;;;;13.91;21.09;92915.00;4945932;28;20104;-78
2023/01/31 12:10:52;;;;;;;6.90;3.22;;;;;;;14.06;20.97;92905.22;4940381;29;20502;-78
2023/01/31 12:13:19;;;;;;;7.38;3.30;;;;;;;13.59;20.94;92904.63;4948052;29;20047;-78
2023/01/31 12:15:59;;;;;;;8.50;3.47;;;;;;;13.61;20.85;92907.75;4956898;29;20134;-78